createdAt,value
2019-04-06T00:00:29.263Z,95.10
2019-04-06T00:03:02.541Z,94.80
2019-04-06T00:05:35.671Z,94.30
2019-04-06T00:08:09.098Z,93.70
2019-04-06T00:10:42.548Z,93.80
2019-04-06T00:13:16.608Z,93.40
2019-04-06T00:15:50.318Z,93.90
2019-04-06T00:18:23.357Z,94.00
2019-04-06T00:20:56.292Z,93.80
2019-04-06T00:23:29.823Z,93.20
2019-04-06T00:26:02.786Z,93.20
2019-04-06T00:28:36.438Z,93.00
2019-04-06T00:31:26.798Z,92.90
2019-04-06T00:34:00.234Z,92.40
2019-04-06T00:36:36.189Z,92.40
2019-04-06T00:39:08.439Z,92.00
2019-04-06T00:41:42.977Z,91.50
2019-04-06T00:44:16.912Z,91.80
2019-04-06T00:46:50.318Z,91.80
2019-04-06T00:49:23.726Z,91.30
2019-04-06T00:51:56.772Z,90.80
2019-04-06T00:54:31.183Z,90.60
2019-04-06T00:57:06.635Z,90.10
2019-04-06T00:59:38.376Z,90.20
2019-04-06T01:02:11.990Z,90.20
2019-04-06T01:04:45.808Z,90.30
2019-04-06T01:07:19.028Z,90.50
2019-04-06T01:09:52.348Z,88.00
2019-04-06T01:12:28.188Z,88.20
2019-04-06T01:15:01.534Z,86.80
2019-04-06T01:17:36.287Z,87.60
2019-04-06T01:20:09.755Z,86.90
2019-04-06T01:22:42.807Z,88.20
2019-04-06T01:25:16.453Z,87.60
2019-04-06T01:27:49.467Z,86.60
2019-04-06T01:30:28.650Z,86.50
2019-04-06T01:33:01.730Z,86.70
2019-04-06T01:35:35.195Z,86.90
2019-04-06T01:38:08.304Z,85.20
2019-04-06T01:40:45.207Z,84.90
2019-04-06T01:43:19.255Z,84.70
2019-04-06T01:45:52.384Z,84.20
2019-04-06T01:48:25.480Z,84.20
2019-04-06T01:50:58.663Z,84.00
2019-04-06T01:53:31.718Z,83.70
2019-04-06T01:56:05.455Z,81.80
2019-04-06T01:58:40.444Z,83.40
2019-04-06T02:01:30.767Z,81.50
2019-04-06T02:04:03.778Z,81.70
2019-04-06T02:06:43.826Z,81.90
2019-04-06T02:09:16.998Z,79.70
2019-04-06T02:11:50.529Z,79.80
2019-04-06T02:14:23.581Z,79.10
2019-04-06T02:16:56.986Z,79.20
2019-04-06T02:19:29.893Z,78.60
2019-04-06T02:22:03.324Z,77.30
2019-04-06T02:24:36.388Z,78.40
2019-04-06T02:27:09.881Z,76.70
2019-04-06T02:29:42.886Z,77.30
2019-04-06T02:32:32.179Z,75.30
2019-04-06T02:35:06.657Z,76.70
2019-04-06T02:37:53.386Z,72.70
2019-04-06T02:40:36.886Z,71.10
2019-04-06T02:43:14.221Z,72.10
2019-04-06T02:45:47.220Z,72.10
2019-04-06T02:48:20.741Z,71.80
2019-04-06T02:50:55.441Z,74.30
2019-04-06T02:53:28.822Z,70.90
2019-04-06T02:56:01.806Z,68.40
2019-04-06T02:58:35.743Z,68.80
2019-04-06T03:01:08.673Z,69.10
2019-04-06T03:03:42.580Z,68.70
2019-04-06T03:06:15.504Z,69.60
2019-04-06T03:08:48.689Z,69.10
2019-04-06T03:11:21.784Z,66.70
2019-04-06T03:13:55.035Z,65.30
2019-04-06T03:16:28.169Z,65.10
2019-04-06T03:19:01.558Z,67.50
2019-04-06T03:21:34.566Z,66.50
2019-04-06T03:24:08.132Z,67.60
2019-04-06T03:26:41.092Z,66.50
2019-04-06T03:29:14.578Z,64.30
2019-04-06T03:31:47.625Z,64.70
2019-04-06T03:34:22.346Z,64.60
2019-04-06T03:36:55.352Z,64.00
2019-04-06T03:39:28.737Z,63.20
2019-04-06T03:42:01.806Z,64.80
2019-04-06T03:44:35.202Z,65.50
2019-04-06T03:47:08.332Z,64.30
2019-04-06T03:49:43.877Z,61.60
2019-04-06T03:52:16.789Z,61.40
2019-04-06T03:54:50.308Z,59.80
2019-04-06T03:57:23.429Z,60.70
2019-04-06T03:59:56.647Z,62.50
2019-04-06T04:02:29.811Z,60.50
2019-04-06T04:05:07.324Z,62.20
2019-04-06T04:07:40.902Z,62.40
2019-04-06T04:10:15.169Z,60.90
2019-04-06T04:12:48.131Z,69.80
2019-04-06T04:15:21.616Z,74.20
2019-04-06T04:17:54.644Z,75.50
2019-04-06T04:20:28.557Z,77.00
2019-04-06T04:23:01.627Z,74.30
2019-04-06T04:25:35.366Z,71.50
2019-04-06T04:28:08.390Z,71.30
2019-04-06T04:30:41.970Z,73.00
2019-04-06T04:33:15.093Z,70.50
2019-04-06T04:35:48.869Z,72.20
2019-04-06T04:38:22.021Z,74.90
2019-04-06T04:40:55.495Z,77.00
2019-04-06T04:43:28.532Z,79.10
2019-04-06T04:46:02.429Z,80.20
2019-04-06T04:48:35.685Z,79.70
2019-04-06T04:51:09.029Z,78.70
2019-04-06T04:53:41.991Z,78.20
2019-04-06T04:56:15.962Z,79.70
2019-04-06T04:58:49.031Z,79.70
2019-04-06T05:01:22.226Z,79.10
2019-04-06T05:03:55.345Z,80.30
2019-04-06T05:06:28.517Z,81.60
2019-04-06T05:09:01.659Z,83.00
2019-04-06T05:11:35.227Z,83.60
2019-04-06T05:14:43.312Z,85.30
2019-04-06T05:17:16.596Z,86.40
2019-04-06T05:19:49.453Z,86.00
2019-04-06T05:22:23.089Z,86.50
2019-04-06T05:24:56.121Z,86.40
2019-04-06T05:27:29.356Z,83.90
2019-04-06T05:30:02.288Z,84.50
2019-04-06T05:32:35.308Z,85.50
2019-04-06T05:35:08.978Z,85.50
2019-04-06T05:37:42.089Z,85.70
2019-04-06T05:40:15.112Z,85.60
2019-04-06T05:42:49.168Z,85.80
2019-04-06T05:45:22.276Z,86.10
2019-04-06T05:47:55.432Z,86.70
2019-04-06T05:50:28.595Z,87.10
2019-04-06T05:53:01.861Z,87.30
2019-04-06T05:55:34.955Z,88.50
2019-04-06T05:58:10.644Z,88.80
2019-04-06T06:00:42.758Z,89.60
2019-04-06T06:03:16.212Z,89.50
2019-04-06T06:05:50.531Z,89.40
2019-04-06T06:08:24.122Z,89.80
2019-04-06T06:10:57.100Z,90.00
2019-04-06T06:13:30.496Z,90.00
2019-04-06T06:16:03.504Z,90.00
2019-04-06T06:18:38.974Z,90.00
2019-04-06T06:21:11.761Z,90.00
2019-04-06T06:23:45.320Z,90.20
2019-04-06T06:26:18.416Z,90.40
2019-04-06T06:28:52.876Z,90.60
2019-04-06T06:31:25.829Z,90.80
2019-04-06T06:33:59.117Z,91.10
2019-04-06T06:36:33.236Z,91.10
2019-04-06T06:39:07.612Z,91.10
2019-04-06T06:41:41.130Z,91.10
2019-04-06T06:44:14.814Z,90.50
2019-04-06T06:46:48.816Z,90.30
2019-04-06T06:49:22.281Z,90.30
2019-04-06T06:51:56.667Z,90.70
2019-04-06T06:54:30.300Z,90.80
2019-04-06T06:57:03.483Z,90.50
2019-04-06T06:59:37.071Z,90.50
2019-04-06T07:02:10.306Z,90.70
2019-04-06T07:04:43.651Z,90.80
2019-04-06T07:07:16.990Z,90.70
2019-04-06T07:09:50.559Z,91.00
2019-04-06T07:12:26.753Z,90.70
2019-04-06T07:15:00.091Z,90.60
2019-04-06T07:17:34.830Z,90.70
2019-04-06T07:20:08.759Z,90.40
2019-04-06T07:22:41.930Z,90.70
2019-04-06T07:25:15.289Z,91.00
2019-04-06T07:27:48.377Z,91.00
2019-04-06T07:30:21.623Z,91.40
2019-04-06T07:32:55.463Z,91.30
2019-04-06T07:35:29.037Z,91.40
2019-04-06T07:38:02.243Z,91.10
2019-04-06T07:40:36.313Z,91.20
2019-04-06T07:43:09.556Z,91.30
2019-04-06T07:45:43.276Z,91.30
2019-04-06T07:48:16.523Z,91.50
2019-04-06T07:50:49.972Z,91.70
2019-04-06T07:53:24.166Z,91.90
2019-04-06T07:55:57.685Z,92.00
2019-04-06T07:58:34.956Z,92.30
2019-04-06T08:01:08.369Z,92.30
2019-04-06T08:03:41.494Z,92.70
2019-04-06T08:06:15.174Z,92.50
2019-04-06T08:08:48.248Z,92.40
2019-04-06T08:11:21.515Z,92.40
2019-04-06T08:13:54.479Z,92.40
2019-04-06T08:16:27.645Z,92.40
2019-04-06T08:19:00.834Z,92.30
2019-04-06T08:21:34.131Z,92.70
2019-04-06T08:24:07.209Z,92.80
2019-04-06T08:26:40.476Z,92.90
2019-04-06T08:29:13.546Z,92.90
2019-04-06T08:31:47.817Z,93.10
2019-04-06T08:34:20.786Z,93.00
2019-04-06T08:36:54.124Z,93.20
2019-04-06T08:39:28.454Z,93.40
2019-04-06T08:42:01.678Z,93.40
2019-04-06T08:44:34.769Z,93.60
2019-04-06T08:47:08.275Z,93.70
2019-04-06T08:49:41.454Z,94.00
2019-04-06T08:52:14.602Z,94.30
2019-04-06T08:54:47.718Z,94.70
2019-04-06T08:57:22.539Z,94.90
2019-04-06T08:59:55.616Z,95.00
2019-04-06T09:02:28.958Z,95.00
2019-04-06T09:05:01.873Z,95.20
2019-04-06T09:07:35.615Z,95.40
2019-04-06T09:10:09.443Z,95.50
2019-04-06T09:12:42.850Z,95.80
2019-04-06T09:15:15.506Z,95.90
2019-04-06T09:17:48.695Z,96.40
2019-04-06T09:20:21.717Z,97.00
2019-04-06T09:22:55.551Z,97.70
2019-04-06T09:25:28.512Z,98.10
2019-04-06T09:28:01.750Z,98.00
2019-04-06T09:30:34.917Z,98.10
2019-04-06T09:33:08.246Z,98.20
2019-04-06T09:35:41.462Z,98.40
2019-04-06T09:38:24.333Z,98.50
2019-04-06T09:40:57.989Z,98.80
2019-04-06T09:43:31.399Z,98.90
2019-04-06T09:46:20.727Z,99.10
2019-04-06T09:48:55.067Z,99.10
2019-04-06T09:51:45.934Z,99.00
2019-04-06T09:54:23.024Z,98.80
2019-04-06T09:57:06.348Z,98.70
2019-04-06T09:59:48.257Z,98.80
2019-04-06T10:02:30.669Z,98.90
2019-04-06T10:05:21.143Z,98.90
2019-04-06T10:07:55.723Z,99.00
2019-04-06T10:10:39.741Z,98.90
2019-04-06T10:13:22.834Z,99.00
2019-04-06T10:15:57.966Z,99.10
2019-04-06T10:18:41.475Z,99.00
2019-04-06T10:21:25.616Z,98.90
2019-04-06T10:24:00.034Z,98.80
2019-04-06T10:26:40.475Z,98.50
2019-04-06T10:29:30.752Z,98.30
2019-04-06T10:32:05.164Z,98.10
2019-04-06T10:34:39.634Z,98.00
2019-04-06T10:37:20.188Z,98.00
2019-04-06T10:39:54.212Z,97.80
2019-04-06T10:42:37.397Z,97.90
2019-04-06T10:45:14.631Z,98.00
2019-04-06T10:48:01.950Z,98.00
2019-04-06T10:50:39.122Z,98.20
2019-04-06T10:53:30.147Z,98.30
2019-04-06T10:56:04.784Z,98.30
2019-04-06T10:58:39.600Z,99.10
2019-04-06T11:01:14.129Z,99.10
2019-04-06T11:03:57.625Z,99.00
2019-04-06T11:06:31.992Z,99.20
2019-04-06T11:09:09.814Z,99.20
2019-04-06T11:11:47.030Z,99.40
2019-04-06T11:14:34.417Z,99.40
2019-04-06T11:17:25.097Z,99.50
2019-04-06T11:20:15.770Z,99.50
2019-04-06T11:22:53.066Z,99.50
2019-04-06T11:25:36.676Z,99.70
2019-04-06T11:28:17.319Z,99.80
2019-04-06T11:30:52.125Z,99.90
2019-04-06T11:33:44.559Z,99.90
2019-04-06T11:36:19.299Z,99.90
2019-04-06T11:38:59.266Z,99.90
2019-04-06T11:41:42.684Z,99.90
2019-04-06T11:44:16.796Z,99.90
2019-04-06T11:46:57.547Z,99.90
2019-04-06T11:49:37.690Z,99.90
2019-04-06T11:52:28.328Z,99.90
2019-04-06T11:55:08.189Z,99.90
2019-04-06T11:57:46.482Z,99.90
2019-04-06T12:00:33.092Z,99.90
2019-04-06T12:03:11.046Z,99.90
2019-04-06T12:05:51.567Z,99.90
2019-04-06T12:08:27.212Z,99.90
2019-04-06T12:11:17.617Z,99.90
2019-04-06T12:14:21.216Z,99.90
2019-04-06T12:17:11.406Z,99.90
2019-04-06T12:19:57.679Z,99.90
2019-04-06T12:22:35.406Z,99.90
2019-04-06T12:25:10.647Z,99.90
2019-04-06T12:27:54.483Z,99.90
2019-04-06T12:30:41.297Z,99.90
2019-04-06T12:33:18.894Z,99.90
2019-04-06T12:36:14.854Z,99.90
2019-04-06T12:38:49.359Z,99.90
2019-04-06T12:41:24.913Z,99.90
2019-04-06T12:44:17.706Z,99.90
2019-04-06T12:47:08.584Z,99.90
2019-04-06T12:49:58.964Z,99.90
2019-04-06T12:52:40.357Z,99.90
2019-04-06T12:55:17.289Z,99.90
2019-04-06T12:58:09.151Z,99.90
2019-04-06T13:00:53.633Z,99.90
2019-04-06T13:03:33.835Z,99.90
2019-04-06T13:06:11.207Z,99.90
2019-04-06T13:08:54.636Z,99.90
2019-04-06T13:11:31.974Z,99.90
2019-04-06T13:14:09.784Z,99.90
2019-04-06T13:17:00.071Z,99.90
2019-04-06T13:19:34.490Z,99.90
2019-04-06T13:22:18.086Z,99.90
2019-04-06T13:25:04.810Z,99.90
2019-04-06T13:27:49.338Z,99.90
2019-04-06T13:30:33.546Z,99.90
2019-04-06T13:33:24.349Z,99.90
2019-04-06T13:36:04.934Z,99.90
2019-04-06T13:38:54.603Z,99.90
2019-04-06T13:41:29.318Z,99.90
2019-04-06T13:44:03.893Z,99.90
2019-04-06T13:46:47.663Z,99.90
2019-04-06T13:49:39.215Z,99.90
2019-04-06T13:52:16.379Z,99.90
2019-04-06T13:54:50.756Z,99.90
2019-04-06T13:57:40.707Z,99.90
2019-04-06T14:00:24.281Z,99.90
2019-04-06T14:03:01.941Z,99.90
2019-04-06T14:05:36.670Z,99.90
2019-04-06T14:08:11.196Z,99.90
2019-04-06T14:10:45.718Z,99.90
2019-04-06T14:13:36.929Z,99.90
2019-04-06T14:16:16.660Z,99.90
2019-04-06T14:18:54.527Z,99.90
2019-04-06T14:21:35.403Z,99.90
2019-04-06T14:24:26.304Z,99.90
2019-04-06T14:27:18.647Z,99.90
2019-04-06T14:30:02.634Z,99.90
2019-04-06T14:32:58.738Z,99.90
2019-04-06T14:35:50.008Z,99.90
2019-04-06T14:38:33.427Z,99.90
2019-04-06T14:41:26.521Z,99.90
2019-04-06T14:44:09.553Z,99.90
2019-04-06T14:46:53.151Z,99.90
2019-04-06T14:49:33.336Z,99.90
2019-04-06T14:52:11.309Z,99.90
2019-04-06T14:54:51.471Z,99.90
2019-04-06T14:57:32.150Z,99.90
2019-04-06T15:00:25.238Z,99.90
2019-04-06T15:03:08.987Z,99.90
2019-04-06T15:05:49.093Z,99.90
2019-04-06T15:08:25.881Z,99.90
2019-04-06T15:11:19.236Z,99.90
2019-04-06T15:14:12.689Z,99.90
2019-04-06T15:16:45.591Z,99.90
2019-04-06T15:19:22.792Z,99.90
2019-04-06T15:22:14.034Z,99.90
2019-04-06T15:24:51.992Z,99.90
2019-04-06T15:27:41.837Z,99.90
2019-04-06T15:30:16.813Z,99.90
2019-04-06T15:32:59.805Z,99.90
2019-04-06T15:35:49.881Z,99.90
2019-04-06T15:38:27.063Z,99.90
2019-04-06T15:41:11.191Z,99.90
2019-04-06T15:44:01.661Z,99.90
2019-04-06T15:46:45.766Z,99.90
2019-04-06T15:49:24.419Z,99.90
2019-04-06T15:52:16.339Z,99.90
2019-04-06T15:55:02.667Z,99.90
2019-04-06T15:57:37.285Z,99.90
2019-04-06T16:00:21.849Z,99.90
2019-04-06T16:02:58.857Z,99.90
2019-04-06T16:05:33.106Z,99.90
2019-04-06T16:08:24.673Z,99.90
2019-04-06T16:10:59.089Z,99.90
2019-04-06T16:13:40.028Z,99.90
2019-04-06T16:16:13.785Z,99.90
2019-04-06T16:18:53.944Z,99.90
2019-04-06T16:21:44.845Z,99.90
2019-04-06T16:24:34.868Z,99.90
2019-04-06T16:27:09.688Z,99.90
2019-04-06T16:29:50.661Z,99.90
2019-04-06T16:32:33.532Z,99.90
2019-04-06T16:35:19.957Z,99.90
2019-04-06T16:38:12.588Z,99.90
2019-04-06T16:40:47.741Z,99.90
2019-04-06T16:43:22.139Z,99.90
2019-04-06T16:46:00.186Z,99.90
2019-04-06T16:48:49.664Z,99.90
2019-04-06T16:51:33.865Z,99.90
2019-04-06T16:54:11.797Z,99.90
2019-04-06T16:56:46.421Z,99.90
2019-04-06T16:59:29.618Z,99.90
2019-04-06T17:02:04.203Z,99.90
2019-04-06T17:04:47.603Z,99.90
2019-04-06T17:07:27.691Z,99.90
2019-04-06T17:10:07.917Z,99.90
2019-04-06T17:12:58.073Z,99.90
2019-04-06T17:15:38.851Z,99.90
2019-04-06T17:18:16.783Z,99.90
2019-04-06T17:20:50.607Z,99.90
2019-04-06T17:23:27.674Z,99.90
2019-04-06T17:26:08.347Z,99.90
2019-04-06T17:28:58.220Z,99.90
2019-04-06T17:31:40.288Z,99.90
2019-04-06T17:34:31.426Z,99.90
2019-04-06T17:37:11.658Z,99.90
2019-04-06T17:39:46.123Z,99.90
2019-04-06T17:42:29.656Z,99.90
2019-04-06T17:45:07.019Z,99.90
2019-04-06T17:47:57.876Z,99.90
2019-04-06T17:50:51.030Z,99.90
2019-04-06T17:53:25.574Z,99.90
2019-04-06T17:56:03.409Z,99.90
2019-04-06T17:58:45.217Z,99.90
2019-04-06T18:01:25.797Z,99.90
2019-04-06T18:04:16.086Z,99.90
2019-04-06T18:07:07.541Z,99.90
2019-04-06T18:09:41.947Z,99.90
2019-04-06T18:12:16.467Z,99.90
2019-04-06T18:14:49.658Z,99.90
2019-04-06T18:17:23.164Z,99.90
2019-04-06T18:19:57.329Z,99.90
2019-04-06T18:22:30.959Z,99.90
2019-04-06T18:25:05.525Z,99.90
2019-04-06T18:27:38.805Z,99.90
2019-04-06T18:30:12.825Z,99.90
2019-04-06T18:32:57.849Z,99.90
2019-04-06T18:35:21.681Z,99.90
2019-04-06T18:38:04.123Z,99.90
2019-04-06T18:40:37.296Z,99.90
2019-04-06T18:43:15.229Z,99.90
2019-04-06T18:45:46.569Z,99.90
2019-04-06T18:48:20.147Z,99.90
2019-04-06T18:50:53.332Z,99.90
2019-04-06T18:53:26.751Z,99.90
2019-04-06T18:56:00.646Z,99.90
2019-04-06T18:58:34.292Z,99.90
2019-04-06T19:01:07.341Z,99.90
2019-04-06T19:03:40.465Z,99.90
2019-04-06T19:06:13.623Z,99.90
2019-04-06T19:08:50.291Z,99.90
2019-04-06T19:11:23.189Z,99.90
2019-04-06T19:13:56.816Z,99.90
2019-04-06T19:16:29.867Z,99.90
2019-04-06T19:19:03.590Z,99.90
2019-04-06T19:21:36.659Z,99.90
2019-04-06T19:24:10.031Z,99.90
2019-04-06T19:26:43.410Z,99.90
2019-04-06T19:29:17.203Z,99.90
2019-04-06T19:31:50.346Z,99.90
2019-04-06T19:34:24.141Z,99.90
2019-04-06T19:36:57.905Z,99.90
2019-04-06T19:39:31.858Z,99.90
2019-04-06T19:42:05.109Z,99.90
2019-04-06T19:44:39.251Z,99.90
2019-04-06T19:47:12.077Z,99.90
2019-04-06T19:49:45.645Z,99.90
2019-04-06T19:52:18.781Z,99.90
2019-04-06T19:54:53.420Z,99.90
2019-04-06T19:57:26.563Z,99.90
2019-04-06T20:00:00.009Z,99.90
2019-04-06T20:02:33.384Z,99.90
2019-04-06T20:05:07.311Z,99.90
2019-04-06T20:07:40.938Z,99.90
2019-04-06T20:10:14.343Z,99.90
2019-04-06T20:12:47.269Z,99.90
2019-04-06T20:15:20.455Z,99.90
2019-04-06T20:17:54.851Z,99.90
2019-04-06T20:20:28.813Z,99.90
2019-04-06T20:23:01.870Z,99.90
2019-04-06T20:25:35.063Z,99.90
2019-04-06T20:28:08.051Z,99.90
2019-04-06T20:30:41.313Z,99.90
2019-04-06T20:33:14.933Z,99.90
2019-04-06T20:35:48.620Z,99.90
2019-04-06T20:38:21.876Z,99.90
2019-04-06T20:40:55.067Z,99.90
2019-04-06T20:43:28.626Z,99.90
2019-04-06T20:46:02.725Z,99.90
2019-04-06T20:48:36.246Z,99.90
2019-04-06T20:51:10.507Z,99.90
2019-04-06T20:53:43.516Z,99.90
2019-04-06T20:56:17.175Z,99.90
2019-04-06T20:58:50.174Z,99.90
2019-04-06T21:01:23.612Z,99.90
2019-04-06T21:04:01.986Z,99.90
2019-04-06T21:06:31.370Z,99.90
2019-04-06T21:09:05.585Z,99.90
2019-04-06T21:11:39.276Z,99.90
2019-04-06T21:14:12.869Z,99.90
2019-04-06T21:16:46.168Z,99.90
2019-04-06T21:19:19.470Z,99.90
2019-04-06T21:21:53.517Z,99.90
2019-04-06T21:24:27.268Z,99.90
2019-04-06T21:27:00.533Z,99.90
2019-04-06T21:29:33.606Z,99.90
2019-04-06T21:32:07.381Z,99.90
2019-04-06T21:34:40.526Z,99.90
2019-04-06T21:37:14.445Z,99.90
2019-04-06T21:39:47.529Z,99.90
2019-04-06T21:42:20.940Z,99.90
2019-04-06T21:44:53.754Z,99.90
2019-04-06T21:47:27.419Z,99.90
2019-04-06T21:50:00.406Z,99.90
2019-04-06T21:52:34.154Z,99.90
2019-04-06T21:55:07.953Z,99.90
2019-04-06T21:57:41.227Z,99.90
2019-04-06T22:00:16.636Z,99.90
2019-04-06T22:02:50.468Z,99.90
2019-04-06T22:05:24.187Z,99.90
2019-04-06T22:07:58.193Z,99.90
2019-04-06T22:10:31.505Z,99.90
2019-04-06T22:13:05.029Z,99.90
2019-04-06T22:15:38.812Z,99.90
2019-04-06T22:18:12.652Z,99.90
2019-04-06T22:20:45.581Z,99.90
2019-04-06T22:23:18.860Z,99.70
2019-04-06T22:25:52.788Z,99.10
2019-04-06T22:28:27.433Z,98.50
2019-04-06T22:31:00.709Z,99.30
2019-04-06T22:33:34.370Z,99.20
2019-04-06T22:36:26.665Z,98.90
2019-04-06T22:39:00.626Z,99.20
2019-04-06T22:41:33.847Z,98.50
2019-04-06T22:44:07.376Z,98.40
2019-04-06T22:46:45.087Z,98.40
2019-04-06T22:49:18.980Z,98.50
2019-04-06T22:51:51.931Z,98.40
2019-04-06T22:54:26.544Z,98.00
2019-04-06T22:56:59.882Z,97.60
2019-04-06T22:59:34.670Z,97.60
2019-04-06T23:02:07.871Z,97.30
2019-04-06T23:04:51.663Z,97.40
2019-04-06T23:07:25.686Z,96.90
2019-04-06T23:10:01.341Z,97.30
2019-04-06T23:12:34.377Z,97.30
2019-04-06T23:15:09.855Z,97.30
2019-04-06T23:17:43.217Z,96.40
2019-04-06T23:20:17.693Z,96.00
2019-04-06T23:22:50.739Z,96.50
2019-04-06T23:25:25.503Z,96.00
2019-04-06T23:27:58.465Z,95.80
2019-04-06T23:30:31.956Z,95.60
2019-04-06T23:33:05.105Z,95.10
2019-04-06T23:35:39.628Z,95.40
2019-04-06T23:38:12.546Z,95.20
2019-04-06T23:40:47.058Z,95.10
2019-04-06T23:43:20.967Z,94.90
2019-04-06T23:45:55.459Z,94.50
2019-04-06T23:48:28.635Z,94.40
2019-04-06T23:51:01.993Z,94.70
2019-04-06T23:53:35.165Z,93.90
2019-04-06T23:56:09.092Z,94.10
2019-04-06T23:59:00.444Z,94.40
